sensor_id;sensor_type;location;lat;lon;timestamp;P1;durP1;ratioP1;P2;durP2;ratioP2
80421;SDS011;69763;50.182;9.144;2023-05-10T00:01:17;6.77;;;2.40;;
80421;SDS011;69763;50.182;9.144;2023-05-10T00:03:42;3.72;;;2.78;;
80421;SDS011;69763;50.182;9.144;2023-05-10T00:06:08;5.70;;;2.60;;
80421;SDS011;69763;50.182;9.144;2023-05-10T00:08:34;4.05;;;2.90;;
80421;SDS011;69763;50.182;9.144;2023-05-10T00:11:00;5.05;;;2.90;;
80421;SDS011;69763;50.182;9.144;2023-05-10T00:13:25;6.95;;;3.70;;
80421;SDS011;69763;50.182;9.144;2023-05-10T00:15:51;6.13;;;3.38;;
80421;SDS011;69763;50.182;9.144;2023-05-10T00:18:16;4.88;;;3.33;;
80421;SDS011;69763;50.182;9.144;2023-05-10T00:20:41;4.30;;;2.10;;
80421;SDS011;69763;50.182;9.144;2023-05-10T00:23:07;3.13;;;2.17;;
80421;SDS011;69763;50.182;9.144;2023-05-10T00:25:33;2.92;;;1.33;;
80421;SDS011;69763;50.182;9.144;2023-05-10T00:27:59;2.83;;;1.58;;
80421;SDS011;69763;50.182;9.144;2023-05-10T00:30:24;2.00;;;1.30;;
80421;SDS011;69763;50.182;9.144;2023-05-10T00:32:49;1.70;;;1.30;;
80421;SDS011;69763;50.182;9.144;2023-05-10T00:35:15;1.92;;;1.55;;
80421;SDS011;69763;50.182;9.144;2023-05-10T00:37:40;2.95;;;1.40;;
80421;SDS011;69763;50.182;9.144;2023-05-10T00:40:06;1.70;;;1.20;;
80421;SDS011;69763;50.182;9.144;2023-05-10T00:42:33;6.70;;;1.45;;
80421;SDS011;69763;50.182;9.144;2023-05-10T00:44:59;1.33;;;1.17;;
80421;SDS011;69763;50.182;9.144;2023-05-10T00:47:24;2.22;;;1.25;;
80421;SDS011;69763;50.182;9.144;2023-05-10T00:49:49;1.33;;;1.00;;
80421;SDS011;69763;50.182;9.144;2023-05-10T00:52:15;1.50;;;1.40;;
80421;SDS011;69763;50.182;9.144;2023-05-10T00:54:41;1.63;;;1.20;;
80421;SDS011;69763;50.182;9.144;2023-05-10T00:57:06;2.28;;;1.25;;
80421;SDS011;69763;50.182;9.144;2023-05-10T00:59:33;2.60;;;1.30;;
80421;SDS011;69763;50.182;9.144;2023-05-10T01:01:59;1.20;;;1.10;;
80421;SDS011;69763;50.182;9.144;2023-05-10T01:04:24;1.83;;;1.30;;
80421;SDS011;69763;50.182;9.144;2023-05-10T01:06:49;2.58;;;1.00;;
80421;SDS011;69763;50.182;9.144;2023-05-10T01:09:15;2.20;;;1.38;;
80421;SDS011;69763;50.182;9.144;2023-05-10T01:11:40;1.55;;;1.30;;
80421;SDS011;69763;50.182;9.144;2023-05-10T01:14:06;1.52;;;1.13;;
80421;SDS011;69763;50.182;9.144;2023-05-10T01:16:35;1.40;;;1.10;;
80421;SDS011;69763;50.182;9.144;2023-05-10T01:19:02;3.05;;;1.30;;
80421;SDS011;69763;50.182;9.144;2023-05-10T01:21:31;2.63;;;1.25;;
80421;SDS011;69763;50.182;9.144;2023-05-10T01:24:10;2.75;;;1.02;;
80421;SDS011;69763;50.182;9.144;2023-05-10T01:26:53;3.40;;;1.27;;
80421;SDS011;69763;50.182;9.144;2023-05-10T01:32:34;2.00;;;1.10;;
80421;SDS011;69763;50.182;9.144;2023-05-10T01:35:03;1.05;;;0.82;;
80421;SDS011;69763;50.182;9.144;2023-05-10T01:37:33;1.48;;;1.23;;
80421;SDS011;69763;50.182;9.144;2023-05-10T01:40:07;3.25;;;1.23;;
80421;SDS011;69763;50.182;9.144;2023-05-10T01:42:39;1.42;;;1.15;;
80421;SDS011;69763;50.182;9.144;2023-05-10T01:45:19;1.60;;;1.30;;
80421;SDS011;69763;50.182;9.144;2023-05-10T01:47:52;2.13;;;1.17;;
80421;SDS011;69763;50.182;9.144;2023-05-10T01:50:24;1.30;;;1.20;;
80421;SDS011;69763;50.182;9.144;2023-05-10T01:52:54;2.30;;;1.15;;
80421;SDS011;69763;50.182;9.144;2023-05-10T01:55:23;2.78;;;1.30;;
80421;SDS011;69763;50.182;9.144;2023-05-10T01:57:52;2.85;;;0.90;;
80421;SDS011;69763;50.182;9.144;2023-05-10T02:00:25;2.13;;;1.13;;
80421;SDS011;69763;50.182;9.144;2023-05-10T02:02:53;1.08;;;0.93;;
80421;SDS011;69763;50.182;9.144;2023-05-10T02:05:19;1.20;;;1.10;;
80421;SDS011;69763;50.182;9.144;2023-05-10T02:07:46;3.47;;;1.10;;
80421;SDS011;69763;50.182;9.144;2023-05-10T02:10:12;1.67;;;1.17;;
80421;SDS011;69763;50.182;9.144;2023-05-10T02:15:06;1.27;;;1.10;;
80421;SDS011;69763;50.182;9.144;2023-05-10T02:17:33;0.98;;;0.80;;
80421;SDS011;69763;50.182;9.144;2023-05-10T02:22:27;0.90;;;0.77;;
80421;SDS011;69763;50.182;9.144;2023-05-10T02:24:53;0.70;;;0.70;;
80421;SDS011;69763;50.182;9.144;2023-05-10T02:29:45;1.73;;;0.85;;
80421;SDS011;69763;50.182;9.144;2023-05-10T02:32:12;2.22;;;0.85;;
80421;SDS011;69763;50.182;9.144;2023-05-10T02:34:39;0.88;;;0.82;;
80421;SDS011;69763;50.182;9.144;2023-05-10T02:37:06;1.20;;;1.10;;
80421;SDS011;69763;50.182;9.144;2023-05-10T02:39:32;1.33;;;1.13;;
80421;SDS011;69763;50.182;9.144;2023-05-10T02:41:58;1.52;;;1.20;;
80421;SDS011;69763;50.182;9.144;2023-05-10T02:44:26;1.40;;;1.30;;
80421;SDS011;69763;50.182;9.144;2023-05-10T02:46:53;0.93;;;0.80;;
80421;SDS011;69763;50.182;9.144;2023-05-10T02:49:19;1.90;;;1.33;;
80421;SDS011;69763;50.182;9.144;2023-05-10T02:51:47;1.70;;;1.15;;
80421;SDS011;69763;50.182;9.144;2023-05-10T02:54:18;2.20;;;1.50;;
80421;SDS011;69763;50.182;9.144;2023-05-10T02:56:47;1.40;;;1.15;;
80421;SDS011;69763;50.182;9.144;2023-05-10T02:59:15;0.93;;;0.80;;
80421;SDS011;69763;50.182;9.144;2023-05-10T03:01:41;1.52;;;1.00;;
80421;SDS011;69763;50.182;9.144;2023-05-10T03:04:06;2.97;;;1.40;;
80421;SDS011;69763;50.182;9.144;2023-05-10T03:06:31;1.30;;;1.00;;
80421;SDS011;69763;50.182;9.144;2023-05-10T03:08:57;4.25;;;1.30;;
80421;SDS011;69763;50.182;9.144;2023-05-10T03:11:27;3.10;;;1.30;;
80421;SDS011;69763;50.182;9.144;2023-05-10T03:14:03;1.33;;;1.20;;
80421;SDS011;69763;50.182;9.144;2023-05-10T03:16:36;1.73;;;1.35;;
80421;SDS011;69763;50.182;9.144;2023-05-10T03:19:09;2.53;;;1.25;;
80421;SDS011;69763;50.182;9.144;2023-05-10T03:21:39;2.97;;;1.70;;
80421;SDS011;69763;50.182;9.144;2023-05-10T03:24:08;1.60;;;1.10;;
80421;SDS011;69763;50.182;9.144;2023-05-10T03:26:38;2.33;;;1.65;;
80421;SDS011;69763;50.182;9.144;2023-05-10T03:29:05;1.83;;;1.48;;
80421;SDS011;69763;50.182;9.144;2023-05-10T03:31:31;1.88;;;1.40;;
80421;SDS011;69763;50.182;9.144;2023-05-10T03:33:57;2.30;;;1.63;;
80421;SDS011;69763;50.182;9.144;2023-05-10T03:36:22;1.85;;;1.40;;
80421;SDS011;69763;50.182;9.144;2023-05-10T03:38:48;2.20;;;1.70;;
80421;SDS011;69763;50.182;9.144;2023-05-10T03:41:13;2.20;;;1.23;;
80421;SDS011;69763;50.182;9.144;2023-05-10T03:43:40;1.83;;;1.42;;
80421;SDS011;69763;50.182;9.144;2023-05-10T03:46:05;1.95;;;1.58;;
80421;SDS011;69763;50.182;9.144;2023-05-10T03:48:32;2.10;;;1.40;;
80421;SDS011;69763;50.182;9.144;2023-05-10T03:50:58;2.38;;;1.50;;
80421;SDS011;69763;50.182;9.144;2023-05-10T03:53:24;3.25;;;1.58;;
80421;SDS011;69763;50.182;9.144;2023-05-10T03:55:49;1.38;;;1.13;;
80421;SDS011;69763;50.182;9.144;2023-05-10T03:58:15;2.88;;;1.48;;
80421;SDS011;69763;50.182;9.144;2023-05-10T04:00:41;1.88;;;1.50;;
80421;SDS011;69763;50.182;9.144;2023-05-10T04:03:07;1.73;;;1.38;;
80421;SDS011;69763;50.182;9.144;2023-05-10T04:05:32;2.75;;;1.35;;
80421;SDS011;69763;50.182;9.144;2023-05-10T04:07:57;1.40;;;1.30;;
80421;SDS011;69763;50.182;9.144;2023-05-10T04:10:23;2.22;;;1.40;;
80421;SDS011;69763;50.182;9.144;2023-05-10T04:12:48;1.70;;;1.40;;
80421;SDS011;69763;50.182;9.144;2023-05-10T04:15:13;2.20;;;1.98;;
80421;SDS011;69763;50.182;9.144;2023-05-10T04:17:40;1.95;;;1.33;;
80421;SDS011;69763;50.182;9.144;2023-05-10T04:20:06;1.83;;;1.35;;
80421;SDS011;69763;50.182;9.144;2023-05-10T04:22:32;3.38;;;1.52;;
80421;SDS011;69763;50.182;9.144;2023-05-10T04:24:57;2.08;;;1.30;;
80421;SDS011;69763;50.182;9.144;2023-05-10T04:27:23;1.88;;;1.42;;
80421;SDS011;69763;50.182;9.144;2023-05-10T04:29:48;6.35;;;1.73;;
80421;SDS011;69763;50.182;9.144;2023-05-10T04:32:13;1.77;;;1.40;;
80421;SDS011;69763;50.182;9.144;2023-05-10T04:34:40;1.92;;;1.50;;
80421;SDS011;69763;50.182;9.144;2023-05-10T04:37:05;3.10;;;1.67;;
80421;SDS011;69763;50.182;9.144;2023-05-10T04:39:31;1.95;;;1.48;;
80421;SDS011;69763;50.182;9.144;2023-05-10T04:41:56;2.85;;;1.73;;
80421;SDS011;69763;50.182;9.144;2023-05-10T04:44:21;2.22;;;1.60;;
80421;SDS011;69763;50.182;9.144;2023-05-10T04:46:47;4.72;;;1.48;;
80421;SDS011;69763;50.182;9.144;2023-05-10T04:49:12;2.30;;;1.52;;
80421;SDS011;69763;50.182;9.144;2023-05-10T04:51:39;1.92;;;1.30;;
80421;SDS011;69763;50.182;9.144;2023-05-10T04:54:04;2.03;;;1.65;;
80421;SDS011;69763;50.182;9.144;2023-05-10T04:56:30;1.83;;;1.27;;
80421;SDS011;69763;50.182;9.144;2023-05-10T04:58:55;1.67;;;1.30;;
80421;SDS011;69763;50.182;9.144;2023-05-10T05:01:20;1.90;;;1.48;;
80421;SDS011;69763;50.182;9.144;2023-05-10T05:03:46;3.08;;;1.55;;
80421;SDS011;69763;50.182;9.144;2023-05-10T05:06:11;2.80;;;1.55;;
80421;SDS011;69763;50.182;9.144;2023-05-10T05:08:38;3.20;;;1.35;;
80421;SDS011;69763;50.182;9.144;2023-05-10T05:11:03;2.45;;;1.33;;
80421;SDS011;69763;50.182;9.144;2023-05-10T05:13:28;2.22;;;1.48;;
80421;SDS011;69763;50.182;9.144;2023-05-10T05:15:54;2.40;;;1.67;;
80421;SDS011;69763;50.182;9.144;2023-05-10T05:18:20;1.55;;;1.20;;
80421;SDS011;69763;50.182;9.144;2023-05-10T05:20:46;2.15;;;1.45;;
80421;SDS011;69763;50.182;9.144;2023-05-10T05:23:11;2.28;;;1.30;;
80421;SDS011;69763;50.182;9.144;2023-05-10T05:25:38;3.67;;;1.88;;
80421;SDS011;69763;50.182;9.144;2023-05-10T05:28:03;2.72;;;1.90;;
80421;SDS011;69763;50.182;9.144;2023-05-10T05:30:29;2.47;;;1.58;;
80421;SDS011;69763;50.182;9.144;2023-05-10T05:32:54;2.10;;;1.55;;
80421;SDS011;69763;50.182;9.144;2023-05-10T05:35:19;2.20;;;1.50;;
80421;SDS011;69763;50.182;9.144;2023-05-10T05:37:45;3.20;;;1.55;;
80421;SDS011;69763;50.182;9.144;2023-05-10T05:40:12;2.40;;;1.58;;
80421;SDS011;69763;50.182;9.144;2023-05-10T05:42:40;4.18;;;1.60;;
80421;SDS011;69763;50.182;9.144;2023-05-10T05:45:05;5.55;;;1.80;;
80421;SDS011;69763;50.182;9.144;2023-05-10T05:47:31;4.90;;;2.03;;
80421;SDS011;69763;50.182;9.144;2023-05-10T05:49:57;2.85;;;2.40;;
80421;SDS011;69763;50.182;9.144;2023-05-10T05:52:22;4.72;;;2.30;;
80421;SDS011;69763;50.182;9.144;2023-05-10T05:54:47;2.97;;;1.90;;
80421;SDS011;69763;50.182;9.144;2023-05-10T05:57:13;3.10;;;2.10;;
80421;SDS011;69763;50.182;9.144;2023-05-10T05:59:39;4.68;;;2.35;;
80421;SDS011;69763;50.182;9.144;2023-05-10T06:02:05;2.75;;;2.10;;
80421;SDS011;69763;50.182;9.144;2023-05-10T06:04:30;5.55;;;2.80;;
80421;SDS011;69763;50.182;9.144;2023-05-10T06:06:55;3.40;;;2.25;;
80421;SDS011;69763;50.182;9.144;2023-05-10T06:09:21;8.85;;;2.63;;
80421;SDS011;69763;50.182;9.144;2023-05-10T06:11:46;6.47;;;2.72;;
80421;SDS011;69763;50.182;9.144;2023-05-10T06:14:11;5.65;;;3.10;;
80421;SDS011;69763;50.182;9.144;2023-05-10T06:16:38;4.07;;;2.88;;
80421;SDS011;69763;50.182;9.144;2023-05-10T06:19:04;6.00;;;3.22;;
80421;SDS011;69763;50.182;9.144;2023-05-10T06:21:29;5.88;;;2.83;;
80421;SDS011;69763;50.182;9.144;2023-05-10T06:23:54;3.13;;;2.67;;
80421;SDS011;69763;50.182;9.144;2023-05-10T06:26:20;9.88;;;3.28;;
80421;SDS011;69763;50.182;9.144;2023-05-10T06:28:45;3.50;;;2.65;;
80421;SDS011;69763;50.182;9.144;2023-05-10T06:31:10;5.97;;;3.03;;
80421;SDS011;69763;50.182;9.144;2023-05-10T06:33:37;7.63;;;2.83;;
80421;SDS011;69763;50.182;9.144;2023-05-10T06:36:03;4.60;;;2.45;;
80421;SDS011;69763;50.182;9.144;2023-05-10T06:38:28;4.15;;;2.50;;
80421;SDS011;69763;50.182;9.144;2023-05-10T06:40:54;5.05;;;2.45;;
80421;SDS011;69763;50.182;9.144;2023-05-10T06:43:19;4.65;;;2.92;;
80421;SDS011;69763;50.182;9.144;2023-05-10T06:45:44;5.25;;;2.85;;
80421;SDS011;69763;50.182;9.144;2023-05-10T06:48:10;5.90;;;2.60;;
80421;SDS011;69763;50.182;9.144;2023-05-10T06:50:36;3.25;;;2.20;;
80421;SDS011;69763;50.182;9.144;2023-05-10T06:53:02;3.50;;;2.30;;
80421;SDS011;69763;50.182;9.144;2023-05-10T06:55:27;4.43;;;2.20;;
80421;SDS011;69763;50.182;9.144;2023-05-10T06:57:52;3.50;;;2.42;;
80421;SDS011;69763;50.182;9.144;2023-05-10T07:00:18;3.33;;;2.20;;
80421;SDS011;69763;50.182;9.144;2023-05-10T07:02:45;3.17;;;2.22;;
80421;SDS011;69763;50.182;9.144;2023-05-10T07:05:11;4.78;;;2.83;;
80421;SDS011;69763;50.182;9.144;2023-05-10T07:07:37;3.47;;;2.70;;
80421;SDS011;69763;50.182;9.144;2023-05-10T07:10:03;7.40;;;2.72;;
80421;SDS011;69763;50.182;9.144;2023-05-10T07:12:29;5.57;;;2.53;;
80421;SDS011;69763;50.182;9.144;2023-05-10T07:14:54;3.60;;;2.50;;
80421;SDS011;69763;50.182;9.144;2023-05-10T07:17:19;3.30;;;2.50;;
80421;SDS011;69763;50.182;9.144;2023-05-10T07:19:45;4.28;;;2.75;;
80421;SDS011;69763;50.182;9.144;2023-05-10T07:22:10;5.30;;;2.53;;
80421;SDS011;69763;50.182;9.144;2023-05-10T07:24:37;4.10;;;2.65;;
80421;SDS011;69763;50.182;9.144;2023-05-10T07:27:02;4.05;;;2.50;;
80421;SDS011;69763;50.182;9.144;2023-05-10T07:29:28;3.42;;;2.58;;
80421;SDS011;69763;50.182;9.144;2023-05-10T07:31:53;4.10;;;2.67;;
80421;SDS011;69763;50.182;9.144;2023-05-10T07:34:19;13.68;;;4.07;;
80421;SDS011;69763;50.182;9.144;2023-05-10T07:36:44;5.97;;;2.10;;
80421;SDS011;69763;50.182;9.144;2023-05-10T07:39:10;5.03;;;2.65;;
80421;SDS011;69763;50.182;9.144;2023-05-10T07:41:36;5.88;;;3.42;;
80421;SDS011;69763;50.182;9.144;2023-05-10T07:44:02;4.57;;;2.47;;
80421;SDS011;69763;50.182;9.144;2023-05-10T07:46:27;3.75;;;2.33;;
80421;SDS011;69763;50.182;9.144;2023-05-10T07:48:53;4.10;;;2.03;;
80421;SDS011;69763;50.182;9.144;2023-05-10T07:51:18;7.40;;;2.75;;
80421;SDS011;69763;50.182;9.144;2023-05-10T07:53:43;6.90;;;2.30;;
80421;SDS011;69763;50.182;9.144;2023-05-10T07:56:22;5.50;;;2.38;;
80421;SDS011;69763;50.182;9.144;2023-05-10T07:58:50;3.47;;;1.88;;
80421;SDS011;69763;50.182;9.144;2023-05-10T08:01:15;4.50;;;2.40;;
80421;SDS011;69763;50.182;9.144;2023-05-10T08:03:40;5.03;;;2.97;;
80421;SDS011;69763;50.182;9.144;2023-05-10T08:06:06;4.65;;;2.30;;
80421;SDS011;69763;50.182;9.144;2023-05-10T08:08:31;5.45;;;3.67;;
80421;SDS011;69763;50.182;9.144;2023-05-10T08:10:57;3.65;;;2.30;;
80421;SDS011;69763;50.182;9.144;2023-05-10T08:13:22;5.15;;;2.40;;
80421;SDS011;69763;50.182;9.144;2023-05-10T08:15:49;5.35;;;2.55;;
80421;SDS011;69763;50.182;9.144;2023-05-10T08:18:14;5.18;;;2.00;;
80421;SDS011;69763;50.182;9.144;2023-05-10T08:20:39;7.40;;;2.35;;
80421;SDS011;69763;50.182;9.144;2023-05-10T08:23:05;4.75;;;2.38;;
80421;SDS011;69763;50.182;9.144;2023-05-10T08:25:30;4.60;;;2.25;;
80421;SDS011;69763;50.182;9.144;2023-05-10T08:27:56;4.75;;;2.20;;
80421;SDS011;69763;50.182;9.144;2023-05-10T08:30:21;2.67;;;2.05;;
80421;SDS011;69763;50.182;9.144;2023-05-10T08:32:48;3.30;;;2.05;;
80421;SDS011;69763;50.182;9.144;2023-05-10T08:35:14;2.47;;;1.80;;
80421;SDS011;69763;50.182;9.144;2023-05-10T08:37:40;4.85;;;2.10;;
80421;SDS011;69763;50.182;9.144;2023-05-10T08:40:06;4.28;;;2.30;;
80421;SDS011;69763;50.182;9.144;2023-05-10T08:42:34;3.05;;;1.92;;
80421;SDS011;69763;50.182;9.144;2023-05-10T08:45:01;5.63;;;2.30;;
80421;SDS011;69763;50.182;9.144;2023-05-10T08:47:27;5.97;;;2.10;;
80421;SDS011;69763;50.182;9.144;2023-05-10T08:49:55;5.45;;;2.20;;
80421;SDS011;69763;50.182;9.144;2023-05-10T08:52:22;4.53;;;2.20;;
80421;SDS011;69763;50.182;9.144;2023-05-10T08:54:50;4.68;;;2.00;;
80421;SDS011;69763;50.182;9.144;2023-05-10T08:57:16;7.60;;;2.97;;
80421;SDS011;69763;50.182;9.144;2023-05-10T08:59:41;4.53;;;2.15;;
80421;SDS011;69763;50.182;9.144;2023-05-10T09:02:06;5.15;;;2.17;;
80421;SDS011;69763;50.182;9.144;2023-05-10T09:04:34;4.88;;;2.30;;
80421;SDS011;69763;50.182;9.144;2023-05-10T09:07:01;4.20;;;2.22;;
80421;SDS011;69763;50.182;9.144;2023-05-10T09:09:26;4.45;;;2.05;;
80421;SDS011;69763;50.182;9.144;2023-05-10T09:11:52;2.42;;;1.95;;
80421;SDS011;69763;50.182;9.144;2023-05-10T09:16:45;2.50;;;2.00;;
80421;SDS011;69763;50.182;9.144;2023-05-10T09:19:11;4.47;;;2.08;;
80421;SDS011;69763;50.182;9.144;2023-05-10T09:21:37;4.80;;;2.03;;
80421;SDS011;69763;50.182;9.144;2023-05-10T09:24:04;5.43;;;1.90;;
80421;SDS011;69763;50.182;9.144;2023-05-10T09:26:30;8.40;;;2.35;;
80421;SDS011;69763;50.182;9.144;2023-05-10T09:28:56;5.07;;;2.13;;
80421;SDS011;69763;50.182;9.144;2023-05-10T09:31:22;4.00;;;2.00;;
80421;SDS011;69763;50.182;9.144;2023-05-10T09:33:48;2.75;;;1.67;;
80421;SDS011;69763;50.182;9.144;2023-05-10T09:36:14;7.30;;;1.80;;
80421;SDS011;69763;50.182;9.144;2023-05-10T09:38:46;3.78;;;1.92;;
80421;SDS011;69763;50.182;9.144;2023-05-10T09:41:17;3.60;;;2.00;;
80421;SDS011;69763;50.182;9.144;2023-05-10T09:43:43;4.78;;;2.10;;
80421;SDS011;69763;50.182;9.144;2023-05-10T09:46:09;3.88;;;1.80;;
80421;SDS011;69763;50.182;9.144;2023-05-10T09:48:34;7.22;;;2.10;;
80421;SDS011;69763;50.182;9.144;2023-05-10T09:51:06;3.13;;;2.08;;
80421;SDS011;69763;50.182;9.144;2023-05-10T09:53:31;2.97;;;2.10;;
80421;SDS011;69763;50.182;9.144;2023-05-10T09:55:57;2.28;;;1.65;;
80421;SDS011;69763;50.182;9.144;2023-05-10T09:58:24;3.42;;;1.75;;
80421;SDS011;69763;50.182;9.144;2023-05-10T10:00:49;3.53;;;2.00;;
80421;SDS011;69763;50.182;9.144;2023-05-10T10:03:16;6.03;;;2.60;;
80421;SDS011;69763;50.182;9.144;2023-05-10T10:05:42;4.50;;;2.13;;
80421;SDS011;69763;50.182;9.144;2023-05-10T10:08:08;3.55;;;1.90;;
80421;SDS011;69763;50.182;9.144;2023-05-10T10:10:33;4.07;;;2.05;;
80421;SDS011;69763;50.182;9.144;2023-05-10T10:12:59;3.83;;;2.20;;
80421;SDS011;69763;50.182;9.144;2023-05-10T10:15:26;4.82;;;2.20;;
80421;SDS011;69763;50.182;9.144;2023-05-10T10:17:52;3.78;;;2.00;;
80421;SDS011;69763;50.182;9.144;2023-05-10T10:22:44;5.10;;;2.03;;
80421;SDS011;69763;50.182;9.144;2023-05-10T10:25:10;4.30;;;1.85;;
80421;SDS011;69763;50.182;9.144;2023-05-10T10:27:38;2.75;;;1.80;;
80421;SDS011;69763;50.182;9.144;2023-05-10T10:30:13;3.67;;;2.00;;
80421;SDS011;69763;50.182;9.144;2023-05-10T10:32:53;4.85;;;1.95;;
80421;SDS011;69763;50.182;9.144;2023-05-10T10:35:26;2.28;;;1.70;;
80421;SDS011;69763;50.182;9.144;2023-05-10T10:37:53;6.28;;;2.10;;
80421;SDS011;69763;50.182;9.144;2023-05-10T10:40:24;3.38;;;1.92;;
80421;SDS011;69763;50.182;9.144;2023-05-10T10:42:51;4.95;;;2.30;;
80421;SDS011;69763;50.182;9.144;2023-05-10T10:45:17;5.65;;;2.10;;
80421;SDS011;69763;50.182;9.144;2023-05-10T10:47:42;5.25;;;2.33;;
80421;SDS011;69763;50.182;9.144;2023-05-10T10:50:11;3.22;;;1.92;;
80421;SDS011;69763;50.182;9.144;2023-05-10T10:52:36;4.03;;;1.92;;
80421;SDS011;69763;50.182;9.144;2023-05-10T10:55:04;5.50;;;2.35;;
80421;SDS011;69763;50.182;9.144;2023-05-10T10:57:31;5.65;;;2.33;;
80421;SDS011;69763;50.182;9.144;2023-05-10T11:02:45;6.72;;;2.45;;
80421;SDS011;69763;50.182;9.144;2023-05-10T11:05:25;5.57;;;2.50;;
80421;SDS011;69763;50.182;9.144;2023-05-10T11:07:59;6.38;;;2.97;;
80421;SDS011;69763;50.182;9.144;2023-05-10T11:10:26;9.75;;;2.72;;
80421;SDS011;69763;50.182;9.144;2023-05-10T11:12:52;7.28;;;2.42;;
80421;SDS011;69763;50.182;9.144;2023-05-10T11:15:18;4.15;;;1.88;;
80421;SDS011;69763;50.182;9.144;2023-05-10T11:17:44;6.05;;;2.13;;
80421;SDS011;69763;50.182;9.144;2023-05-10T11:20:10;3.42;;;2.00;;
80421;SDS011;69763;50.182;9.144;2023-05-10T11:22:52;3.38;;;2.08;;
80421;SDS011;69763;50.182;9.144;2023-05-10T11:25:18;5.88;;;2.13;;
80421;SDS011;69763;50.182;9.144;2023-05-10T11:27:44;4.43;;;2.40;;
80421;SDS011;69763;50.182;9.144;2023-05-10T11:30:12;3.78;;;2.25;;
80421;SDS011;69763;50.182;9.144;2023-05-10T11:32:38;3.63;;;1.77;;
80421;SDS011;69763;50.182;9.144;2023-05-10T11:35:06;3.15;;;1.80;;
80421;SDS011;69763;50.182;9.144;2023-05-10T11:37:32;2.50;;;1.60;;
80421;SDS011;69763;50.182;9.144;2023-05-10T11:39:59;4.97;;;2.35;;
80421;SDS011;69763;50.182;9.144;2023-05-10T11:42:24;3.10;;;1.50;;
80421;SDS011;69763;50.182;9.144;2023-05-10T11:44:50;2.92;;;1.63;;
80421;SDS011;69763;50.182;9.144;2023-05-10T11:47:15;2.45;;;1.70;;
80421;SDS011;69763;50.182;9.144;2023-05-10T11:49:43;2.35;;;1.38;;
80421;SDS011;69763;50.182;9.144;2023-05-10T11:52:08;4.50;;;1.55;;
80421;SDS011;69763;50.182;9.144;2023-05-10T11:54:34;1.80;;;1.40;;
80421;SDS011;69763;50.182;9.144;2023-05-10T11:57:00;2.47;;;1.40;;
80421;SDS011;69763;50.182;9.144;2023-05-10T11:59:26;1.73;;;1.40;;
80421;SDS011;69763;50.182;9.144;2023-05-10T12:01:51;1.85;;;1.30;;
80421;SDS011;69763;50.182;9.144;2023-05-10T12:04:17;3.25;;;1.50;;
80421;SDS011;69763;50.182;9.144;2023-05-10T12:06:42;1.98;;;1.40;;
80421;SDS011;69763;50.182;9.144;2023-05-10T12:09:07;2.83;;;1.40;;
80421;SDS011;69763;50.182;9.144;2023-05-10T12:11:36;3.55;;;1.30;;
80421;SDS011;69763;50.182;9.144;2023-05-10T12:14:04;2.08;;;1.40;;
80421;SDS011;69763;50.182;9.144;2023-05-10T12:16:30;1.33;;;1.20;;
80421;SDS011;69763;50.182;9.144;2023-05-10T12:18:56;2.30;;;1.30;;
80421;SDS011;69763;50.182;9.144;2023-05-10T12:21:22;1.45;;;0.90;;
80421;SDS011;69763;50.182;9.144;2023-05-10T12:23:49;1.67;;;1.10;;
80421;SDS011;69763;50.182;9.144;2023-05-10T12:26:15;1.13;;;1.05;;
80421;SDS011;69763;50.182;9.144;2023-05-10T12:28:41;1.48;;;1.05;;
80421;SDS011;69763;50.182;9.144;2023-05-10T12:31:07;1.83;;;1.45;;
80421;SDS011;69763;50.182;9.144;2023-05-10T12:33:36;2.83;;;1.20;;
80421;SDS011;69763;50.182;9.144;2023-05-10T12:36:02;1.45;;;1.10;;
80421;SDS011;69763;50.182;9.144;2023-05-10T12:38:28;1.88;;;1.35;;
80421;SDS011;69763;50.182;9.144;2023-05-10T12:40:55;3.20;;;1.35;;
80421;SDS011;69763;50.182;9.144;2023-05-10T12:43:20;3.17;;;1.30;;
80421;SDS011;69763;50.182;9.144;2023-05-10T12:45:47;2.05;;;1.52;;
80421;SDS011;69763;50.182;9.144;2023-05-10T12:48:13;1.75;;;1.20;;
80421;SDS011;69763;50.182;9.144;2023-05-10T12:50:39;3.42;;;1.60;;
80421;SDS011;69763;50.182;9.144;2023-05-10T12:53:04;2.47;;;1.40;;
80421;SDS011;69763;50.182;9.144;2023-05-10T12:55:29;2.38;;;1.33;;
80421;SDS011;69763;50.182;9.144;2023-05-10T12:57:55;4.78;;;1.38;;
80421;SDS011;69763;50.182;9.144;2023-05-10T13:00:20;4.93;;;1.40;;
80421;SDS011;69763;50.182;9.144;2023-05-10T13:02:46;5.10;;;1.63;;
80421;SDS011;69763;50.182;9.144;2023-05-10T13:05:12;2.75;;;1.88;;
80421;SDS011;69763;50.182;9.144;2023-05-10T13:07:38;2.03;;;1.38;;
80421;SDS011;69763;50.182;9.144;2023-05-10T13:10:03;2.88;;;1.42;;
80421;SDS011;69763;50.182;9.144;2023-05-10T13:14:55;5.57;;;1.53;;
80421;SDS011;69763;50.182;9.144;2023-05-10T13:17:20;4.80;;;1.40;;
80421;SDS011;69763;50.182;9.144;2023-05-10T13:19:45;3.40;;;1.30;;
80421;SDS011;69763;50.182;9.144;2023-05-10T13:22:12;1.83;;;1.17;;
80421;SDS011;69763;50.182;9.144;2023-05-10T13:24:37;1.67;;;1.40;;
80421;SDS011;69763;50.182;9.144;2023-05-10T13:27:03;1.85;;;1.50;;
80421;SDS011;69763;50.182;9.144;2023-05-10T13:29:28;2.67;;;1.50;;
80421;SDS011;69763;50.182;9.144;2023-05-10T13:31:53;7.18;;;1.80;;
80421;SDS011;69763;50.182;9.144;2023-05-10T13:34:19;4.43;;;1.45;;
80421;SDS011;69763;50.182;9.144;2023-05-10T13:36:44;3.13;;;1.35;;
80421;SDS011;69763;50.182;9.144;2023-05-10T13:39:11;2.33;;;1.33;;
80421;SDS011;69763;50.182;9.144;2023-05-10T13:41:36;3.15;;;1.90;;
80421;SDS011;69763;50.182;9.144;2023-05-10T13:44:02;1.95;;;1.30;;
80421;SDS011;69763;50.182;9.144;2023-05-10T13:46:28;3.00;;;1.33;;
80421;SDS011;69763;50.182;9.144;2023-05-10T13:51:18;2.00;;;1.30;;
80421;SDS011;69763;50.182;9.144;2023-05-10T13:53:44;3.28;;;1.60;;
80421;SDS011;69763;50.182;9.144;2023-05-10T13:56:10;5.27;;;1.50;;
80421;SDS011;69763;50.182;9.144;2023-05-10T13:58:36;2.13;;;1.52;;
80421;SDS011;69763;50.182;9.144;2023-05-10T14:01:01;2.88;;;1.38;;
80421;SDS011;69763;50.182;9.144;2023-05-10T14:03:27;2.38;;;1.58;;
80421;SDS011;69763;50.182;9.144;2023-05-10T14:05:52;1.75;;;1.65;;
80421;SDS011;69763;50.182;9.144;2023-05-10T14:08:17;2.45;;;1.40;;
80421;SDS011;69763;50.182;9.144;2023-05-10T14:10:43;2.55;;;1.60;;
80421;SDS011;69763;50.182;9.144;2023-05-10T14:13:09;3.22;;;1.60;;
80421;SDS011;69763;50.182;9.144;2023-05-10T14:15:35;1.88;;;1.40;;
80421;SDS011;69763;50.182;9.144;2023-05-10T14:18:00;3.72;;;1.42;;
80421;SDS011;69763;50.182;9.144;2023-05-10T14:20:25;2.55;;;1.70;;
80421;SDS011;69763;50.182;9.144;2023-05-10T14:22:51;2.63;;;1.50;;
80421;SDS011;69763;50.182;9.144;2023-05-10T14:25:16;5.90;;;1.73;;
80421;SDS011;69763;50.182;9.144;2023-05-10T14:27:42;2.70;;;1.73;;
80421;SDS011;69763;50.182;9.144;2023-05-10T14:30:09;2.45;;;1.80;;
80421;SDS011;69763;50.182;9.144;2023-05-10T14:32:35;3.30;;;1.65;;
80421;SDS011;69763;50.182;9.144;2023-05-10T14:35:01;2.40;;;1.58;;
80421;SDS011;69763;50.182;9.144;2023-05-10T14:37:26;1.42;;;1.25;;
80421;SDS011;69763;50.182;9.144;2023-05-10T14:39:51;4.97;;;1.75;;
80421;SDS011;69763;50.182;9.144;2023-05-10T14:42:17;3.58;;;1.33;;
80421;SDS011;69763;50.182;9.144;2023-05-10T14:44:42;1.75;;;1.50;;
80421;SDS011;69763;50.182;9.144;2023-05-10T14:47:09;10.45;;;1.80;;
80421;SDS011;69763;50.182;9.144;2023-05-10T14:49:34;1.98;;;1.40;;
80421;SDS011;69763;50.182;9.144;2023-05-10T14:52:00;4.72;;;1.50;;
80421;SDS011;69763;50.182;9.144;2023-05-10T14:54:25;2.20;;;1.27;;
80421;SDS011;69763;50.182;9.144;2023-05-10T14:56:50;3.75;;;1.80;;
80421;SDS011;69763;50.182;9.144;2023-05-10T14:59:16;1.65;;;1.48;;
80421;SDS011;69763;50.182;9.144;2023-05-10T15:01:41;4.97;;;1.95;;
80421;SDS011;69763;50.182;9.144;2023-05-10T15:04:08;4.40;;;1.60;;
80421;SDS011;69763;50.182;9.144;2023-05-10T15:06:33;2.42;;;1.73;;